Latest Coastal Weather Observations for Moruya Airport

IDN60701

Issued at 12:51 pm EST Friday 3 July 2015 (issued every 10 minutes, with the page automatically refreshed every 10 minutes)

About coastal observations | Map of coastal stations | Coastal observations for NSW | Marine services | Other Formats
Station Details ID: 069148 Name: MORUYA AIRPORT AWS Lat: -35.90 Lon: 150.14 Height: 4.0 m
Data from the previous 72 hours. | See also: Recent months for locations in New South Wales
Date/Time
EST
Temp

°C
Wind Pressure Rain
since 9am
mm
Weather Cloud Vis
km
Sea
Height
m
Swell
Dir
 
Speed
knots
Gust
knots
hPa Trend Height
m
Period
s
Dir
03/12:30pm 13.2 SSW 5 7 1025.9 - 0.0 - - 10 - - - -
03/12:00pm 12.8 W 6 9 1026.4 - 0.0 - - 10 - - - -
03/11:30am 12.0 SW 5 8 1026.8 - 0.0 - - 10 - - - -
03/11:00am 11.3 W 5 7 1027.2 - 0.0 - - 10 - - - -
03/10:30am 10.3 W 5 7 1027.6 - 0.0 - - 10 - - - -
03/10:00am 8.4 SW 5 7 1027.8 - 0.0 - - 10 - - - -
03/09:30am 6.9 WSW 5 7 1027.8 - 0.0 - - 10 - - - -
03/09:00am 5.7 W 4 6 1027.5 - 1.6 - - 10 - - - -
03/08:30am 2.9 WSW 4 5 1027.3 - 1.6 - - 10 - - - -
03/08:00am 1.2 WSW 4 6 1027.1 - 1.6 - - 10 - - - -
03/07:30am -0.3 SW 4 5 1026.5 - 1.6 - - 10 - - - -
03/07:00am 0.0 W 4 5 1026.3 - 1.6 - - 10 - - - -
03/06:30am -0.6 WSW 4 6 1025.9 - 1.6 - - 10 - - - -
03/06:00am -0.4 WSW 3 4 1025.6 - 1.6 - - 10 - - - -
03/05:30am 0.0 WSW 3 4 1025.3 - 1.6 - - 10 - - - -
03/05:00am 0.7 CALM 0 0 1024.8 - 1.6 - - 10 - - - -
03/04:30am 2.8 WSW 5 7 1024.7 - 1.6 - - 10 - - - -
03/04:00am 1.6 WSW 5 6 1024.5 - 1.6 - - 10 - - - -
03/03:30am 2.1 WSW 6 7 1024.5 - 1.6 - - 10 - - - -
03/03:00am 4.4 W 5 7 1024.6 - 1.6 - - 10 - - - -
03/02:30am 4.2 W 5 8 1024.6 - 1.6 - - 10 - - - -
03/02:00am 4.6 WSW 6 8 1024.5 - 1.6 - - 10 - - - -
03/01:30am 5.5 W 6 8 1024.6 - 1.6 - - 10 - - - -
03/01:00am 4.1 NW 5 8 1024.5 - 1.6 - - 10 - - - -
03/12:30am 5.6 W 6 9 1024.6 - 1.6 - - 10 - - - -
 
Date/Time
EST
Temp

°C
Wind Pressure Rain
since 9am
mm
Weather Cloud Vis
km
Sea
Height
m
Swell
Dir
 
Speed
knots
Gust
knots
hPa Trend Height
m
Period
s
Dir
02/11:30pm 5.8 W 5 8 1025.0 - 1.6 - - 10 - - - -
02/11:00pm 6.3 W 6 9 1024.6 - 1.6 - - 10 - - - -
02/10:30pm 6.0 WSW 6 8 1024.5 - 1.6 - - 10 - - - -
02/10:00pm 5.5 WNW 5 7 1024.1 - 1.4 - - 10 - - - -
02/09:30pm 3.3 SW 7 9 1023.7 - 1.4 - - 10 - - - -
02/09:00pm 1.7 W 4 6 1023.5 - 1.4 - - 10 - - - -
02/08:30pm 2.4 W 4 6 1023.3 - 1.4 - - 10 - - - -
02/08:00pm 2.9 W 3 5 1022.9 - 1.4 - - 10 - - - -
02/07:30pm 3.9 W 5 7 1022.5 - 1.4 - - 10 - - - -
02/07:00pm 4.8 WSW 3 4 1022.1 - 1.4 - - 10 - - - -
02/06:30pm 6.8 SW 2 5 1021.2 - 1.4 - - 10 - - - -
02/06:00pm 8.8 WSW 6 8 1020.5 - 1.4 - - 10 - - - -
02/05:30pm 9.5 WSW 9 13 1019.8 - 1.4 - - 10 - - - -
02/05:00pm 10.2 SSW 10 17 1019.3 - 1.4 - - 10 - - - -
02/04:30pm 9.8 SSW 8 12 1018.5 - 1.4 - Partly cloudy 10 - - - -
02/04:00pm 9.9 S 10 13 1017.9 - 1.4 - - 10 - - - -
02/03:30pm 9.1 SSW 21 34 1017.2 - 1.4 - Partly cloudy 10 - - - -
02/03:09pm 12.9 NW 8 29 1016.6 - 0.4 - Partly cloudy 10 - - - -
02/03:00pm 15.4 NW 6 8 1014.7 - 0.0 - Partly cloudy 10 - - - -
02/02:30pm 14.4 NW 9 15 1014.3 - 0.0 - Partly cloudy 10 - - - -
02/02:00pm 15.0 NW 10 15 1014.4 - 0.0 - - 10 - - - -
02/01:30pm 15.2 WNW 10 16 1014.8 - 0.0 - Partly cloudy 10 - - - -
02/01:00pm 14.6 NW 7 13 1015.4 - 0.0 - Partly cloudy 10 - - - -
02/12:30pm 14.7 NW 9 15 1015.3 - 0.0 - Cloudy 10 - - - -
02/12:00pm 15.6 NNW 7 10 1015.6 - 0.0 - Cloudy 10 - - - -
02/11:30am 16.6 WNW 7 13 1016.3 - 0.0 - - 10 - - - -
02/11:00am 15.8 WNW 7 11 1016.9 - 0.0 - - 10 - - - -
02/10:30am 15.2 WNW 6 10 1016.9 - 0.0 - - 10 - - - -
02/10:00am 14.6 WNW 5 9 1016.9 - 0.0 - - 10 - - - -
02/09:30am 14.0 NW 5 8 1016.7 - 0.0 - - 10 - - - -
02/09:00am 13.0 NNW 5 7 1016.9 - 0.0 - - 10 - - - -
02/08:30am 11.8 NW 5 9 1016.9 - 0.0 - - 10 - - - -
02/08:00am 10.8 WNW 8 11 1017.0 - 0.0 - - 10 - - - -
02/07:30am 10.1 WNW 9 13 1017.0 - 0.0 - - 10 - - - -
02/07:00am 9.0 W 8 13 1017.2 - 0.0 - - 10 - - - -
02/06:30am 7.5 W 7 9 1017.7 - 0.0 - - 10 - - - -
02/06:00am 4.6 N 4 6 1017.7 - 0.0 - - 10 - - - -
02/05:30am 4.7 NW 5 8 1017.6 - 0.0 - - 10 - - - -
02/05:00am 1.9 N 3 4 1017.9 - 0.0 - - 10 - - - -
02/04:30am 2.5 N 4 6 1017.8 - 0.0 - - 10 - - - -
02/04:00am 2.8 NNW 3 5 1018.2 - 0.0 - - 10 - - - -
02/03:30am 2.6 CALM 0 3 1018.8 - 0.0 - - 10 - - - -
02/03:00am 2.1 W 3 6 1019.2 - 0.0 - - 10 - - - -
02/02:30am 3.1 E 1 4 1019.6 - 0.0 - - 10 - - - -
02/02:00am 6.1 W 5 7 1019.7 - 0.0 - - 10 - - - -
02/01:30am 4.3 WNW 2 4 1019.8 - 0.0 - - 10 - - - -
02/01:00am 5.9 W 6 9 1019.9 - 0.0 - - 10 - - - -
02/12:30am 3.0 WNW 4 7 1020.4 - 0.0 - - 10 - - - -
02/12:00am 2.6 WSW 4 5 1020.8 - 0.0 - - 10 - - - -
 
Date/Time
EST
Temp

°C
Wind Pressure Rain
since 9am
mm
Weather Cloud Vis
km
Sea
Height
m
Swell
Dir
 
Speed
knots
Gust
knots
hPa Trend Height
m
Period
s
Dir
01/11:58pm 2.5 WSW 4 5 1020.8 - 0.0 - - 10 - - - -
01/11:39pm 2.1 NW 3 4 1020.8 - 0.0 - - 5 - - - -
01/11:30pm 2.4 CALM 0 4 1020.8 - 0.0 - - 7 - - - -
01/11:17pm 2.5 CALM 0 0 1021.0 - 0.0 - - 10 - - - -
01/11:00pm 2.8 WNW 1 4 1021.0 - 0.0 - - 2 - - - -
01/10:44pm 2.7 W 2 4 1021.0 - 0.0 - - 5 - - - -
01/10:30pm 3.2 WNW 3 4 1020.9 - 0.0 - - 9 - - - -
01/10:25pm 2.8 WNW 3 4 1020.9 - 0.0 - - 10 - - - -
01/10:05pm 2.8 CALM 0 0 1020.7 - 0.0 - - 5 - - - -
01/10:00pm 3.4 CALM 0 0 1020.7 - 0.0 - - 7 - - - -
01/09:57pm 3.4 CALM 0 0 1020.6 - 0.0 - - 7 - - - -
01/09:36pm 3.7 NW 3 5 1021.2 - 0.0 - - 3 - - - -
01/09:30pm 4.3 NW 5 6 1021.3 - 0.0 - - 9 - - - -
01/09:00pm 4.5 WNW 4 5 1021.5 - 0.0 - - 7 - - - -
01/08:55pm 3.8 WNW 4 5 1021.4 - 0.0 - - 6 - - - -
01/08:37pm 4.4 NW 1 3 1021.5 - 0.0 - - 5 - - - -
01/08:30pm 4.4 NW 1 4 1021.6 - 0.0 - - 7 - - - -
01/08:00pm 4.8 WNW 3 4 1021.7 - 0.0 - - 10 - - - -
01/07:30pm 5.2 WNW 3 4 1021.4 - 0.0 - - 10 - - - -
01/07:00pm 6.0 CALM 0 2 1021.4 - 0.0 - - 10 - - - -
01/06:30pm 7.2 W 1 4 1021.6 - 0.0 - - 10 - - - -
01/06:00pm 7.9 NW 4 5 1021.6 - 0.0 - - 10 - - - -
01/05:30pm 8.3 NNW 4 5 1021.6 - 0.0 - - 10 - - - -
01/05:00pm 10.7 N 4 6 1021.4 - 0.0 - - 10 - - - -
01/04:30pm 12.9 NNE 5 7 1021.6 - 0.0 - - 10 - - - -
01/04:00pm 14.8 NE 5 7 1021.6 - 0.0 - - 10 - - - -
01/03:30pm 15.4 NE 5 7 1021.9 - 0.0 - - 10 - - - -
01/03:00pm 15.6 ENE 6 7 1022.0 - 0.0 - - 10 - - - -
01/02:30pm 16.5 NNW 4 7 1022.2 - 0.0 - - 10 - - - -
01/02:00pm 16.3 NW 4 6 1022.5 - 0.0 - - 10 - - - -
01/01:30pm 16.3 NW 4 7 1023.1 - 0.0 - - 10 - - - -
01/01:00pm 16.0 NW 3 6 1023.5 - 0.0 - - 10 - - - -
01/12:30pm 15.7 W 5 8 1024.0 - 0.0 - - 10 - - - -
01/12:00pm 15.2 WSW 5 7 1024.6 - 0.0 - - 10 - - - -
01/11:30am 15.0 W 6 9 1025.3 - 0.0 - - 10 - - - -
01/11:00am 14.3 WNW 5 7 1025.9 - 0.0 - - 10 - - - -
01/10:30am 13.3 WNW 5 7 1026.5 - 0.0 - - 10 - - - -
01/10:00am 11.9 W 6 8 1026.6 - 0.0 - - 10 - - - -
01/09:30am 10.8 W 6 8 1026.6 - 0.0 - - 10 - - - -
01/09:00am 9.6 W 5 8 1026.6 - 0.0 - - 10 - - - -
01/08:30am 8.3 W 5 7 1026.4 - 0.0 - - 10 - - - -
01/08:00am 6.5 WSW 5 7 1026.2 - 0.0 - - 10 - - - -
01/07:30am 4.8 W 4 6 1026.0 - 0.0 - - 10 - - - -
01/07:00am 4.2 WSW 4 5 1025.8 - 0.0 - - 10 - - - -
01/06:30am 6.1 W 4 6 1025.6 - 0.0 - Partly cloudy 10 - - - -
01/06:00am 6.4 W 5 8 1025.6 - 0.0 - Partly cloudy 10 - - - -
01/05:30am 6.5 WSW 5 7 1025.3 - 0.0 - Partly cloudy 10 - - - -
01/05:00am 6.5 W 6 8 1025.2 - 0.0 - Partly cloudy 10 - - - -
01/04:30am 6.3 W 4 6 1025.3 - 0.0 - Partly cloudy 10 - - - -
01/04:00am 6.8 W 5 6 1025.3 - 0.0 - Partly cloudy 10 - - - -
01/03:30am 6.1 W 4 5 1025.4 - 0.0 - Partly cloudy 10 - - - -
01/03:00am 6.3 WSW 4 6 1025.6 - 0.0 - Mostly clear 10 - - - -
01/02:30am 7.3 WSW 5 8 1025.9 - 0.0 - Partly cloudy 10 - - - -
01/02:00am 7.5 W 4 6 1025.8 - 0.0 - Partly cloudy 10 - - - -
01/01:30am 7.2 WSW 5 6 1025.9 - 0.0 - Partly cloudy 10 - - - -
01/01:00am 8.4 WSW 5 6 1025.8 - 0.0 - Cloudy 10 - - - -
01/12:30am 8.7 SW 4 7 1026.1 - 0.0 - Partly cloudy 10 - - - -
01/12:00am 8.4 WSW 5 7 1026.0 - 0.0 - Mostly clear 10 - - - -
 
Date/Time
EST
Temp

°C
Wind Pressure Rain
since 9am
mm
Weather Cloud Vis
km
Sea
Height
m
Swell
Dir
 
Speed
knots
Gust
knots
hPa Trend Height
m
Period
s
Dir
30/11:30pm 8.3 WNW 3 4 1026.0 - 0.0 - Partly cloudy 10 - - - -
30/11:00pm 9.8 WNW 3 5 1025.8 - 0.0 - Partly cloudy 10 - - - -
30/10:30pm 10.5 WSW 6 8 1026.0 - 0.0 - Cloudy 10 - - - -
30/10:00pm 10.1 WSW 6 8 1026.1 - 0.0 - Partly cloudy 10 - - - -
30/09:30pm 9.3 SW 6 8 1026.0 - 0.0 - Partly cloudy 10 - - - -
30/09:00pm 10.3 W 5 8 1025.7 - 0.0 - Mostly clear 10 - - - -
30/08:30pm 10.8 W 5 7 1025.7 - 0.0 - Partly cloudy 10 - - - -
30/08:00pm 11.3 W 5 7 1025.6 - 0.0 - Partly cloudy 10 - - - -
30/07:30pm 11.4 W 7 9 1025.5 - 0.0 - Partly cloudy 10 - - - -
30/07:00pm 10.7 WSW 6 8 1025.2 - 0.0 - Partly cloudy 10 - - - -
30/06:30pm 9.9 W 5 7 1025.0 - 0.0 - - 10 - - - -
30/06:00pm 9.8 SW 5 6 1024.9 - 0.0 - Mostly clear 10 - - - -
30/05:30pm 11.4 NNW 3 6 1024.6 - 0.0 - - 10 - - - -
30/05:00pm 12.6 W 3 6 1024.3 - 0.0 - - 10 - - - -
30/04:30pm 13.2 SW 5 7 1023.9 - 0.0 - - 10 - - - -
30/04:00pm 16.4 WNW 1 4 1023.8 - 0.0 - - 10 - - - -
30/03:30pm 18.0 WNW 3 5 1023.7 - 0.0 - - 10 - - - -
30/03:00pm 17.8 WNW 6 9 1023.5 - 0.0 - - 10 - - - -
30/02:30pm 18.2 NW 6 12 1023.5 - 0.0 - - 10 - - - -
30/02:00pm 18.2 NW 7 13 1023.7 - 0.0 - - 10 - - - -
30/01:30pm 18.1 NW 8 14 1023.9 - 0.0 - - 10 - - - -
30/01:00pm 17.8 WNW 9 13 1024.4 - 0.0 - - 10 - - - -

Other Formats:

Comma delimited format used in spreadsheet applications
http://www.bom.gov.au/fwo/IDN60701/IDN60701.95937.axf

JavaScript Object Notation format (JSON) in row-major order
http://www.bom.gov.au/fwo/IDN60701/IDN60701.95937.json